Time;durP1;ratioP1;P1;durP2;ratioP2;P2;SDS_P1;SDS_P2;PMS_P1;PMS_P2;Temp;Humidity;BMP_temperature;BMP_pressure;BME280_temperature;BME280_humidity;BME280_pressure;Samples;Min_cycle;Max_cycle;Signal;HPM_P1;HPM_P2
2020/12/16 00:01:27;;;;;;;37.15;22.55;;;9.20;99.90;;;;;;5031238;28;20067;-47
2020/12/16 00:03:53;;;;;;;36.47;21.63;;;9.20;99.90;;;;;;5030394;28;20038;-47
2020/12/16 00:06:18;;;;;;;38.67;22.58;;;9.10;99.90;;;;;;5030518;28;20038;-47
2020/12/16 00:08:44;;;;;;;38.92;22.42;;;9.10;99.90;;;;;;5030371;28;20441;-48
2020/12/16 00:11:09;;;;;;;33.42;20.70;;;9.20;99.90;;;;;;5031067;28;20498;-47
2020/12/16 00:13:35;;;;;;;39.83;22.98;;;9.10;99.90;;;;;;5031017;28;20029;-48
2020/12/16 00:16:00;;;;;;;43.53;23.27;;;9.10;99.90;;;;;;5029670;28;20103;-47
2020/12/16 00:18:26;;;;;;;36.67;22.70;;;9.10;99.90;;;;;;5030685;28;20025;-49
2020/12/16 00:20:51;;;;;;;37.25;22.88;;;9.10;99.90;;;;;;5030598;28;20033;-50
2020/12/16 00:23:17;;;;;;;41.17;23.00;;;9.10;99.90;;;;;;5030379;28;20026;-47
2020/12/16 00:25:43;;;;;;;39.63;21.83;;;9.10;99.90;;;;;;5029388;28;20029;-48
2020/12/16 00:28:09;;;;;;;35.30;21.63;;;9.10;99.90;;;;;;5030792;28;20032;-46
2020/12/16 00:30:34;;;;;;;31.80;21.10;;;9.10;99.90;;;;;;5029759;28;20029;-48
2020/12/16 00:33:00;;;;;;;37.30;21.35;;;9.10;99.90;;;;;;5030483;28;20026;-48
2020/12/16 00:35:29;;;;;;;34.20;21.00;;;9.10;99.90;;;;;;5029831;28;20087;-49
2020/12/16 00:37:55;;;;;;;37.13;21.48;;;9.00;99.90;;;;;;5029884;28;20105;-48
2020/12/16 00:40:20;;;;;;;36.15;22.17;;;9.10;99.90;;;;;;5030563;28;20025;-47
2020/12/16 00:42:47;;;;;;;36.33;21.90;;;9.00;99.90;;;;;;5029721;28;20055;-49
2020/12/16 00:45:13;;;;;;;36.58;22.75;;;9.00;99.90;;;;;;5029970;28;20061;-46
2020/12/16 00:47:39;;;;;;;43.67;21.90;;;9.10;99.90;;;;;;5029718;28;20079;-47
2020/12/16 00:50:07;;;;;;;36.05;21.30;;;9.10;99.90;;;;;;5030270;28;20029;-48
2020/12/16 00:52:33;;;;;;;36.08;20.85;;;9.00;99.90;;;;;;5030289;28;20036;-47
2020/12/16 00:54:58;;;;;;;36.83;22.40;;;9.10;99.90;;;;;;5029135;28;20021;-49
2020/12/16 00:57:24;;;;;;;36.95;21.75;;;9.10;99.90;;;;;;5030336;28;20029;-49
2020/12/16 00:59:49;;;;;;;42.13;22.95;;;9.10;99.90;;;;;;5030610;28;20437;-47
2020/12/16 01:02:15;;;;;;;39.13;24.30;;;9.10;99.90;;;;;;5029382;28;20033;-48
2020/12/16 01:04:41;;;;;;;37.15;20.42;;;9.10;99.90;;;;;;5028320;28;20081;-48
2020/12/16 01:07:07;;;;;;;33.97;20.58;;;9.10;99.90;;;;;;5029209;28;20026;-49
2020/12/16 01:09:32;;;;;;;32.92;19.02;;;9.10;99.90;;;;;;5028613;28;20409;-47
2020/12/16 01:11:58;;;;;;;34.83;20.73;;;9.00;99.90;;;;;;5030013;28;20029;-47
2020/12/16 01:14:23;;;;;;;35.80;20.45;;;9.10;99.90;;;;;;5028470;28;20013;-48
2020/12/16 01:16:49;;;;;;;36.80;21.85;;;9.00;99.90;;;;;;5029784;28;20108;-47
2020/12/16 01:19:14;;;;;;;40.75;24.08;;;9.10;99.90;;;;;;5029755;28;20032;-47
2020/12/16 01:21:40;;;;;;;32.83;20.98;;;9.10;99.90;;;;;;5028860;28;20395;-47
2020/12/16 01:24:06;;;;;;;43.30;23.80;;;9.00;99.90;;;;;;5029631;28;20486;-48
2020/12/16 01:26:51;;;;;;;35.58;22.17;;;9.00;99.90;;;;;;5028202;28;20061;-48
2020/12/16 01:29:17;;;;;;;34.75;22.65;;;9.00;99.90;;;;;;5029484;28;20507;-47
2020/12/16 01:31:44;;;;;;;37.83;20.80;;;8.90;99.90;;;;;;5029397;28;20032;-47
2020/12/16 01:34:11;;;;;;;34.75;22.38;;;8.90;99.90;;;;;;5027375;28;20021;-47
2020/12/16 01:36:41;;;;;;;36.53;21.58;;;9.00;99.90;;;;;;5028814;28;20028;-47
2020/12/16 01:39:09;;;;;;;34.43;20.77;;;9.00;99.90;;;;;;5028817;28;20029;-50
2020/12/16 01:41:38;;;;;;;39.40;22.73;;;9.00;99.90;;;;;;5029251;28;20264;-47
2020/12/16 01:44:18;;;;;;;40.92;24.52;;;9.00;99.90;;;;;;5029185;28;20030;-48
2020/12/16 01:46:54;;;;;;;35.00;20.80;;;9.00;99.90;;;;;;5027873;28;20489;-48
2020/12/16 01:49:21;;;;;;;38.58;23.92;;;9.00;99.90;;;;;;5029246;28;20281;-48
2020/12/16 01:51:55;;;;;;;35.28;21.15;;;9.00;99.90;;;;;;5028550;28;20494;-48
2020/12/16 01:54:24;;;;;;;32.10;19.02;;;9.00;99.90;;;;;;5028798;28;20037;-48
2020/12/16 01:56:53;;;;;;;34.70;20.90;;;9.00;99.90;;;;;;5028343;28;20029;-48
2020/12/16 01:59:19;;;;;;;36.90;20.60;;;9.00;99.90;;;;;;5029137;28;20028;-48
2020/12/16 02:01:49;;;;;;;32.65;19.92;;;9.00;99.90;;;;;;5028471;28;20025;-46
2020/12/16 02:04:19;;;;;;;38.78;23.02;;;9.00;99.90;;;;;;5028923;28;20032;-47
2020/12/16 02:06:45;;;;;;;38.83;24.20;;;9.00;99.90;;;;;;5028476;28;20061;-49
2020/12/16 02:09:11;;;;;;;39.67;22.73;;;9.00;99.90;;;;;;5028091;28;20524;-47
2020/12/16 02:11:39;;;;;;;45.25;25.83;;;9.00;99.90;;;;;;5028674;28;20036;-48
2020/12/16 02:14:06;;;;;;;47.45;25.33;;;9.00;99.90;;;;;;5028940;28;20026;-49
2020/12/16 02:16:34;;;;;;;43.50;24.85;;;9.00;99.90;;;;;;5027756;28;20029;-47
2020/12/16 02:18:59;;;;;;;49.05;25.52;;;9.00;99.90;;;;;;5028667;28;20021;-48
2020/12/16 02:21:25;;;;;;;41.17;23.73;;;9.00;99.90;;;;;;5028568;28;20108;-49
2020/12/16 02:23:51;;;;;;;48.80;25.10;;;9.00;99.90;;;;;;5028706;28;20034;-47
2020/12/16 02:26:17;;;;;;;47.33;26.75;;;9.00;99.90;;;;;;5027441;28;20128;-49
2020/12/16 02:28:42;;;;;;;52.58;27.02;;;9.00;99.90;;;;;;5028905;28;20542;-47
2020/12/16 02:31:11;;;;;;;51.25;26.88;;;9.00;99.90;;;;;;5028309;28;20208;-48
2020/12/16 02:33:36;;;;;;;43.45;24.73;;;9.00;99.90;;;;;;5028623;28;20589;-49
2020/12/16 02:36:03;;;;;;;48.53;24.80;;;9.00;99.90;;;;;;5027884;28;20112;-49
2020/12/16 02:38:28;;;;;;;52.33;25.98;;;8.90;99.90;;;;;;5027817;28;20025;-47
2020/12/16 02:40:54;;;;;;;42.05;23.83;;;9.00;99.90;;;;;;5028930;28;20104;-48
2020/12/16 02:43:19;;;;;;;52.78;27.23;;;9.00;99.90;;;;;;5028710;28;20501;-48
2020/12/16 02:45:45;;;;;;;50.17;27.10;;;9.00;99.90;;;;;;5027215;28;20388;-46
2020/12/16 02:48:13;;;;;;;57.78;27.90;;;9.00;99.90;;;;;;5028402;28;20036;-47
2020/12/16 02:50:39;;;;;;;49.28;27.02;;;9.00;99.90;;;;;;5027561;28;20025;-48
2020/12/16 02:53:05;;;;;;;53.58;27.83;;;9.00;99.90;;;;;;5028405;28;20414;-48
2020/12/16 02:55:30;;;;;;;57.42;28.83;;;9.00;99.90;;;;;;5027678;28;20033;-48
2020/12/16 02:57:56;;;;;;;60.30;30.02;;;9.00;99.90;;;;;;5027823;28;20045;-43
2020/12/16 03:00:21;;;;;;;53.17;26.95;;;9.00;99.90;;;;;;5032203;28;20033;-42
2020/12/16 03:02:46;;;;;;;54.28;27.35;;;9.00;99.90;;;;;;5031669;28;20021;-43
2020/12/16 03:05:12;;;;;;;55.53;25.98;;;9.00;99.90;;;;;;5031690;28;20029;-44
2020/12/16 03:07:37;;;;;;;55.13;26.95;;;9.00;99.90;;;;;;5031666;28;20088;-42
2020/12/16 03:10:03;;;;;;;62.30;30.50;;;9.00;99.90;;;;;;5032248;28;20530;-43
2020/12/16 03:12:28;;;;;;;61.53;29.05;;;9.00;99.90;;;;;;5031569;28;20100;-43
2020/12/16 03:14:54;;;;;;;57.05;28.48;;;9.00;99.90;;;;;;5031594;28;20475;-43
2020/12/16 03:17:19;;;;;;;56.53;27.77;;;8.90;99.90;;;;;;5031700;28;20025;-42
2020/12/16 03:19:45;;;;;;;59.70;27.85;;;9.00;99.90;;;;;;5031530;28;20032;-41
2020/12/16 03:22:10;;;;;;;51.78;25.17;;;9.00;99.90;;;;;;5030542;28;20065;-44
2020/12/16 03:24:36;;;;;;;59.58;27.75;;;9.00;99.90;;;;;;5031111;28;20116;-43
2020/12/16 03:27:02;;;;;;;58.28;28.67;;;8.90;99.90;;;;;;5031956;28;20037;-43
2020/12/16 03:29:27;;;;;;;71.35;30.50;;;9.00;99.90;;;;;;5031662;28;20051;-42
2020/12/16 03:31:52;;;;;;;62.45;29.55;;;8.90;99.90;;;;;;5031931;28;20501;-42
2020/12/16 03:34:18;;;;;;;66.15;28.85;;;8.90;99.90;;;;;;5031264;28;20032;-44
2020/12/16 03:36:44;;;;;;;63.63;29.05;;;9.00;99.90;;;;;;5030049;28;20116;-43
2020/12/16 03:39:10;;;;;;;66.05;27.85;;;9.00;99.90;;;;;;5031000;28;20052;-42
2020/12/16 03:41:35;;;;;;;61.92;27.45;;;8.90;99.90;;;;;;5031151;28;20069;-43
2020/12/16 03:44:01;;;;;;;53.25;24.80;;;9.00;99.90;;;;;;5030319;28;20112;-42
2020/12/16 03:46:26;;;;;;;51.85;23.25;;;9.00;99.90;;;;;;5030758;28;20025;-43
2020/12/16 03:48:52;;;;;;;54.28;24.38;;;9.00;99.90;;;;;;5031382;28;20044;-42
2020/12/16 03:51:17;;;;;;;56.08;25.92;;;9.00;99.90;;;;;;5030738;28;20017;-42
2020/12/16 03:53:43;;;;;;;47.13;24.10;;;9.00;99.90;;;;;;5030013;28;20021;-42
2020/12/16 03:56:11;;;;;;;47.70;23.77;;;9.00;99.90;;;;;;5030141;28;20039;-42
2020/12/16 03:58:40;;;;;;;51.03;23.15;;;8.90;99.90;;;;;;5031203;28;20502;-43
2020/12/16 04:01:07;;;;;;;52.13;27.02;;;9.00;99.90;;;;;;5029941;28;20449;-42
2020/12/16 04:03:33;;;;;;;53.95;26.23;;;9.00;99.90;;;;;;5030675;28;20044;-44
2020/12/16 04:05:59;;;;;;;63.28;28.77;;;9.00;99.90;;;;;;5029240;28;20120;-43
2020/12/16 04:08:25;;;;;;;51.95;25.90;;;8.90;99.90;;;;;;5031004;28;20029;-42
2020/12/16 04:10:50;;;;;;;66.00;32.20;;;8.90;99.90;;;;;;5029964;28;20033;-43
2020/12/16 04:13:16;;;;;;;53.88;27.08;;;8.90;99.90;;;;;;5031181;28;20559;-43
2020/12/16 04:15:45;;;;;;;62.40;29.83;;;8.90;99.90;;;;;;5030478;28;20138;-43
2020/12/16 04:18:11;;;;;;;64.35;28.38;;;8.90;99.90;;;;;;5030040;28;20487;-43
2020/12/16 04:20:37;;;;;;;60.42;28.73;;;8.90;99.90;;;;;;5030881;28;20108;-42
2020/12/16 04:23:04;;;;;;;68.15;29.60;;;8.80;99.90;;;;;;5030309;28;20059;-42
2020/12/16 04:25:30;;;;;;;79.07;32.20;;;8.80;99.90;;;;;;5030516;28;20032;-43
2020/12/16 04:27:56;;;;;;;84.38;33.83;;;8.70;99.90;;;;;;5030211;28;20025;-42
2020/12/16 04:30:21;;;;;;;93.50;33.33;;;8.70;99.90;;;;;;5029145;28;20660;-43
2020/12/16 04:33:00;;;;;;;91.75;35.13;;;8.60;99.90;;;;;;5030227;28;20029;-42
2020/12/16 04:35:28;;;;;;;90.28;34.53;;;8.60;99.90;;;;;;5030077;28;20021;-42
2020/12/16 04:37:55;;;;;;;101.60;35.60;;;8.60;99.90;;;;;;5030734;28;20055;-42
2020/12/16 04:40:21;;;;;;;81.32;33.15;;;8.50;99.90;;;;;;5029860;28;20474;-41
2020/12/16 04:43:21;;;;;;;85.35;33.88;;;8.60;99.90;;;;;;5030900;28;20391;-42
2020/12/16 04:45:48;;;;;;;81.55;31.95;;;8.60;99.90;;;;;;5027697;28;20422;-42
2020/12/16 04:48:15;;;;;;;95.20;37.28;;;8.60;99.90;;;;;;5030606;28;20033;-43
2020/12/16 04:50:42;;;;;;;83.70;33.05;;;8.60;99.90;;;;;;5030709;28;20399;-42
2020/12/16 04:53:13;;;;;;;83.88;33.97;;;8.60;99.90;;;;;;5029989;28;20017;-42
2020/12/16 04:55:39;;;;;;;89.32;34.72;;;8.60;99.90;;;;;;5030006;28;20501;-43
2020/12/16 04:58:05;;;;;;;95.18;37.45;;;8.50;99.90;;;;;;5028808;28;20475;-41
2020/12/16 05:00:32;;;;;;;84.72;35.08;;;8.60;99.90;;;;;;5030477;28;20026;-42
2020/12/16 05:03:03;;;;;;;84.15;34.88;;;8.50;99.90;;;;;;5030063;28;20514;-42
2020/12/16 05:05:29;;;;;;;75.05;30.95;;;8.60;99.90;;;;;;5029710;28;20044;-41
2020/12/16 05:07:55;;;;;;;73.57;31.20;;;8.60;99.90;;;;;;5030062;28;20041;-41
2020/12/16 05:10:33;;;;;;;69.40;30.42;;;8.60;99.90;;;;;;5029542;28;20414;-41
2020/12/16 05:13:07;;;;;;;66.10;29.75;;;8.60;99.90;;;;;;5029221;28;20487;-41
2020/12/16 05:15:33;;;;;;;63.97;27.77;;;8.60;99.90;;;;;;5028218;28;20087;-41
2020/12/16 05:18:21;;;;;;;51.67;23.88;;;8.50;99.90;;;;;;5031933;28;20138;-42
2020/12/16 05:20:54;;;;;;;56.35;24.92;;;8.60;99.90;;;;;;5034514;28;20052;-43
2020/12/16 05:23:24;;;;;;;56.00;24.88;;;8.50;99.90;;;;;;5029073;28;20025;-42
2020/12/16 05:26:16;;;;;;;61.20;27.15;;;8.60;99.90;;;;;;5029137;28;20091;-41
2020/12/16 05:28:49;;;;;;;58.45;25.73;;;8.60;99.90;;;;;;5028538;28;20388;-46
2020/12/16 05:31:14;;;;;;;56.38;25.40;;;8.60;99.90;;;;;;5028141;28;20025;-46
2020/12/16 05:33:45;;;;;;;56.47;26.30;;;8.60;99.90;;;;;;5028129;28;20376;-46
2020/12/16 05:36:11;;;;;;;57.78;26.30;;;8.60;99.90;;;;;;5028197;28;20022;-43
2020/12/16 05:38:50;;;;;;;56.05;25.38;;;8.60;99.90;;;;;;5029349;28;20040;-43
2020/12/16 05:41:25;;;;;;;56.47;26.15;;;8.60;99.90;;;;;;5034206;28;20026;-44
2020/12/16 05:43:50;;;;;;;56.50;25.88;;;8.60;99.90;;;;;;5032588;28;20029;-45
2020/12/16 05:46:25;;;;;;;52.17;23.95;;;8.60;99.90;;;;;;5028709;28;20036;-42
2020/12/16 05:48:51;;;;;;;50.35;23.13;;;8.60;99.90;;;;;;5029280;28;20025;-43
2020/12/16 05:51:17;;;;;;;48.85;23.73;;;8.60;99.90;;;;;;5027912;28;20029;-44
2020/12/16 05:53:42;;;;;;;53.13;23.77;;;8.60;99.90;;;;;;5028747;28;20514;-43
2020/12/16 05:56:08;;;;;;;52.22;24.75;;;8.50;99.90;;;;;;5028096;28;20026;-43
2020/12/16 05:58:34;;;;;;;53.33;24.15;;;8.50;99.90;;;;;;5029146;28;20428;-42
2020/12/16 06:01:01;;;;;;;53.28;24.55;;;8.50;99.90;;;;;;5028685;28;20025;-44
2020/12/16 06:03:29;;;;;;;60.75;26.48;;;8.50;99.90;;;;;;5032536;28;20041;-42
2020/12/16 06:06:06;;;;;;;62.53;24.77;;;8.50;99.90;;;;;;5036335;28;20026;-44
2020/12/16 06:08:42;;;;;;;65.68;27.65;;;8.50;99.90;;;;;;5036943;28;20461;-43
2020/12/16 06:11:11;;;;;;;60.67;28.70;;;8.50;99.90;;;;;;5036864;28;20020;-42
2020/12/16 06:13:37;;;;;;;64.30;29.00;;;8.40;99.90;;;;;;5038388;28;20021;-43
2020/12/16 06:16:07;;;;;;;57.78;27.42;;;8.40;99.90;;;;;;5036320;28;20029;-42
2020/12/16 06:18:33;;;;;;;71.55;27.25;;;8.40;99.90;;;;;;5033085;28;20034;-42
2020/12/16 06:21:00;;;;;;;68.50;28.90;;;8.40;99.90;;;;;;5030628;28;20110;-43
2020/12/16 06:23:29;;;;;;;72.93;29.88;;;8.40;99.90;;;;;;5039359;28;20445;-42
2020/12/16 06:25:58;;;;;;;78.07;31.02;;;8.30;99.90;;;;;;5036246;28;20110;-42
2020/12/16 06:28:24;;;;;;;82.13;31.73;;;8.30;99.90;;;;;;5040136;28;20033;-41
2020/12/16 06:31:06;;;;;;;78.20;31.63;;;8.30;99.90;;;;;;5048227;28;20434;-43
2020/12/16 06:33:42;;;;;;;67.15;29.13;;;8.30;99.90;;;;;;5039183;28;20033;-41
2020/12/16 06:36:09;;;;;;;77.15;31.58;;;8.30;99.90;;;;;;5027844;28;20382;-42
2020/12/16 06:38:41;;;;;;;70.47;31.33;;;8.30;99.90;;;;;;5028374;28;20025;-42
2020/12/16 06:41:11;;;;;;;67.30;28.45;;;8.20;99.90;;;;;;5028032;28;20083;-44
2020/12/16 06:43:44;;;;;;;71.30;29.58;;;8.20;99.90;;;;;;5028311;28;20017;-44
2020/12/16 06:46:30;;;;;;;69.43;28.10;;;8.20;99.90;;;;;;5026922;28;20018;-44
2020/12/16 06:48:56;;;;;;;62.55;28.45;;;8.10;99.90;;;;;;5027366;28;20280;-45
2020/12/16 06:51:36;;;;;;;61.67;26.13;;;8.00;99.90;;;;;;5027471;28;20708;-46
2020/12/16 06:54:15;;;;;;;61.45;26.83;;;8.00;99.90;;;;;;5028294;28;20281;-41
2020/12/16 06:56:43;;;;;;;61.83;25.58;;;7.90;99.90;;;;;;5026962;28;20033;-43
2020/12/16 06:59:12;;;;;;;64.28;27.17;;;7.90;99.90;;;;;;5027072;28;20021;-42
2020/12/16 07:01:38;;;;;;;55.28;25.98;;;7.80;99.90;;;;;;5028498;28;20025;-42
2020/12/16 07:04:11;;;;;;;71.15;30.63;;;7.80;99.90;;;;;;5028449;28;20265;-43
2020/12/16 07:06:38;;;;;;;61.80;27.35;;;7.70;99.90;;;;;;5027131;28;20024;-44
2020/12/16 07:09:23;;;;;;;67.18;28.48;;;7.70;99.90;;;;;;5027810;28;20068;-44
2020/12/16 07:11:54;;;;;;;67.30;27.33;;;7.70;99.90;;;;;;5028073;28;20061;-43
2020/12/16 07:14:36;;;;;;;64.15;27.58;;;7.60;99.90;;;;;;5027973;28;20017;-45
2020/12/16 07:17:09;;;;;;;63.78;28.23;;;7.60;99.90;;;;;;5027304;28;20071;-43
2020/12/16 07:19:35;;;;;;;77.85;33.17;;;7.60;99.90;;;;;;5027579;28;20029;-44
2020/12/16 07:22:36;;;;;;;58.83;27.65;;;7.60;99.90;;;;;;5026887;28;20168;-43
2020/12/16 07:25:02;;;;;;;54.03;24.67;;;7.50;99.90;;;;;;5015993;28;20057;-44
2020/12/16 07:27:28;;;;;;;61.45;27.13;;;7.50;99.90;;;;;;5037723;28;20069;-44
2020/12/16 07:29:58;;;;;;;61.00;26.23;;;7.40;99.90;;;;;;5031509;28;20026;-44
2020/12/16 07:32:25;;;;;;;46.00;24.48;;;7.40;99.90;;;;;;5027874;28;20025;-44
2020/12/16 07:34:57;;;;;;;52.10;24.75;;;7.40;99.90;;;;;;5027024;28;20036;-43
2020/12/16 07:37:25;;;;;;;50.35;23.88;;;7.50;99.90;;;;;;5027379;28;20014;-44
2020/12/16 07:39:55;;;;;;;46.72;23.17;;;7.40;99.90;;;;;;5027291;28;20029;-48
2020/12/16 07:42:33;;;;;;;47.45;22.55;;;7.40;99.90;;;;;;5027675;28;20032;-43
2020/12/16 07:45:01;;;;;;;45.58;21.08;;;7.40;99.90;;;;;;5028159;28;20049;-44
2020/12/16 07:47:27;;;;;;;41.03;21.38;;;7.40;99.90;;;;;;5031165;28;20053;-43
2020/12/16 07:49:53;;;;;;;38.58;20.48;;;7.40;99.90;;;;;;5030822;28;20084;-44
2020/12/16 07:52:31;;;;;;;44.15;20.70;;;7.30;99.90;;;;;;5030276;28;20029;-45
2020/12/16 07:54:57;;;;;;;45.72;21.73;;;7.40;99.90;;;;;;5029859;28;20479;-43
2020/12/16 07:57:30;;;;;;;41.85;21.40;;;7.40;99.90;;;;;;5030616;28;20061;-45
2020/12/16 07:59:56;;;;;;;41.90;21.00;;;7.40;99.90;;;;;;5030494;28;20109;-44
2020/12/16 08:02:22;;;;;;;43.92;22.75;;;7.40;99.90;;;;;;5030671;28;20223;-45
2020/12/16 08:04:55;;;;;;;38.03;19.92;;;7.50;99.90;;;;;;5029974;28;20044;-44
2020/12/16 08:07:20;;;;;;;41.80;21.42;;;7.50;99.90;;;;;;5030214;28;20021;-44
2020/12/16 08:10:04;;;;;;;38.53;20.95;;;7.60;99.90;;;;;;5030482;28;20544;-45
2020/12/16 08:12:36;;;;;;;38.92;20.00;;;7.50;99.90;;;;;;5030358;28;20057;-45
2020/12/16 08:15:14;;;;;;;43.13;22.65;;;7.60;99.90;;;;;;5029886;28;20400;-46
2020/12/16 08:17:41;;;;;;;47.33;24.65;;;7.60;99.90;;;;;;5029103;28;20402;-44
2020/12/16 08:20:08;;;;;;;46.42;22.95;;;7.70;99.90;;;;;;5030373;28;20030;-44
2020/12/16 08:22:37;;;;;;;43.88;22.67;;;7.70;99.90;;;;;;5029912;28;20036;-44
2020/12/16 08:25:08;;;;;;;47.42;24.15;;;7.80;99.90;;;;;;5028240;28;20108;-45
2020/12/16 08:27:35;;;;;;;41.20;21.65;;;7.80;99.90;;;;;;5030393;28;20022;-44
2020/12/16 08:30:02;;;;;;;44.80;22.45;;;7.90;99.90;;;;;;5012465;28;20028;-46
2020/12/16 08:32:32;;;;;;;44.08;23.40;;;8.00;99.90;;;;;;5029163;28;20026;-45
2020/12/16 08:35:01;;;;;;;45.55;24.02;;;8.00;99.90;;;;;;5029779;28;20374;-44
2020/12/16 08:37:28;;;;;;;40.40;20.75;;;8.10;99.90;;;;;;5030270;28;20021;-44
2020/12/16 08:39:55;;;;;;;55.13;27.70;;;8.20;99.90;;;;;;5034532;28;20068;-44
2020/12/16 08:42:24;;;;;;;49.22;25.17;;;8.20;99.90;;;;;;5029317;28;20497;-43
2020/12/16 08:44:51;;;;;;;44.50;25.48;;;8.20;99.90;;;;;;5032624;28;20076;-44
2020/12/16 08:47:25;;;;;;;51.60;27.98;;;8.30;99.90;;;;;;5029544;28;20053;-43
2020/12/16 08:49:51;;;;;;;48.80;27.27;;;8.40;99.90;;;;;;5034372;28;20121;-46
2020/12/16 08:52:17;;;;;;;43.03;26.05;;;8.40;99.90;;;;;;5036963;28;20029;-50
2020/12/16 08:54:44;;;;;;;40.80;23.10;;;8.50;99.90;;;;;;5029753;28;20071;-48
2020/12/16 08:57:10;;;;;;;36.85;22.23;;;8.50;99.90;;;;;;5028905;28;20036;-48
2020/12/16 08:59:37;;;;;;;45.83;25.52;;;8.60;99.90;;;;;;5030302;28;20026;-48
2020/12/16 09:02:03;;;;;;;44.75;25.27;;;8.70;99.90;;;;;;5030130;28;20022;-48
2020/12/16 09:04:30;;;;;;;38.30;23.10;;;8.80;99.90;;;;;;5029303;28;20032;-48
2020/12/16 09:07:07;;;;;;;42.58;23.90;;;8.90;99.90;;;;;;5029748;28;20061;-48
2020/12/16 09:09:34;;;;;;;46.55;26.98;;;8.90;99.90;;;;;;5045444;28;20052;-50
2020/12/16 09:12:00;;;;;;;44.38;25.73;;;9.00;99.90;;;;;;5029874;28;20112;-49
2020/12/16 09:14:26;;;;;;;43.88;25.45;;;9.00;99.90;;;;;;5029508;28;20018;-48
2020/12/16 09:16:52;;;;;;;38.60;22.60;;;9.10;99.90;;;;;;5030217;28;20033;-48
2020/12/16 09:19:19;;;;;;;40.85;23.75;;;9.10;99.90;;;;;;5030020;28;20021;-49
2020/12/16 09:21:45;;;;;;;42.40;25.52;;;9.20;99.90;;;;;;5029643;28;20030;-48
2020/12/16 09:24:11;;;;;;;39.00;23.02;;;9.30;99.90;;;;;;5029616;28;20521;-51
2020/12/16 09:26:44;;;;;;;41.30;24.20;;;9.30;99.90;;;;;;5029437;28;20033;-48
2020/12/16 09:29:27;;;;;;;39.42;23.83;;;9.30;99.90;;;;;;5029720;28;20222;-48
2020/12/16 09:32:11;;;;;;;38.67;23.75;;;9.30;99.90;;;;;;5038498;28;20017;-48
2020/12/16 09:34:40;;;;;;;48.45;28.60;;;9.40;99.90;;;;;;5049015;28;20470;-48
2020/12/16 09:37:23;;;;;;;43.00;25.67;;;9.40;99.90;;;;;;5049296;28;20102;-48
2020/12/16 09:39:49;;;;;;;43.30;24.38;;;9.40;99.90;;;;;;5049337;28;20474;-50
2020/12/16 09:42:16;;;;;;;45.60;26.05;;;9.40;99.90;;;;;;5049145;28;20109;-48
2020/12/16 09:44:42;;;;;;;40.92;25.25;;;9.40;99.90;;;;;;5048626;28;20056;-48
2020/12/16 09:47:14;;;;;;;41.17;25.27;;;9.40;99.90;;;;;;5049143;28;20521;-49
2020/12/16 09:49:40;;;;;;;42.45;25.83;;;9.40;99.90;;;;;;5048815;28;20086;-50
2020/12/16 09:52:23;;;;;;;43.45;26.13;;;9.40;99.90;;;;;;5037265;28;20026;-50
2020/12/16 09:54:49;;;;;;;46.33;27.85;;;9.50;99.90;;;;;;5029053;28;20025;-44
2020/12/16 09:57:14;;;;;;;53.13;30.75;;;9.50;99.90;;;;;;5029102;28;20030;-48
2020/12/16 09:59:40;;;;;;;45.97;27.73;;;9.60;99.90;;;;;;5035400;28;20332;-43
2020/12/16 10:02:05;;;;;;;52.88;30.33;;;9.60;99.90;;;;;;5040219;28;20036;-44
2020/12/16 10:04:32;;;;;;;48.20;29.67;;;9.60;99.90;;;;;;5038654;28;20057;-44
2020/12/16 10:06:57;;;;;;;44.55;28.00;;;9.70;99.90;;;;;;5029207;28;20078;-47
2020/12/16 10:09:23;;;;;;;45.25;27.80;;;9.70;99.90;;;;;;5026251;28;20045;-44
2020/12/16 10:11:49;;;;;;;47.40;27.98;;;9.70;99.90;;;;;;5025883;28;20025;-45
2020/12/16 10:14:19;;;;;;;49.67;28.92;;;9.80;99.90;;;;;;5030177;28;20027;-44
2020/12/16 10:16:46;;;;;;;50.33;29.02;;;9.90;99.90;;;;;;5032535;28;20028;-44
2020/12/16 10:19:13;;;;;;;51.67;30.08;;;10.00;99.90;;;;;;5026601;28;20276;-44
2020/12/16 10:21:40;;;;;;;47.95;28.65;;;10.10;99.90;;;;;;5026983;28;20032;-44
2020/12/16 10:24:05;;;;;;;47.78;30.13;;;10.30;99.90;;;;;;5033503;28;20207;-43
2020/12/16 10:26:31;;;;;;;48.35;30.00;;;10.40;99.90;;;;;;5032989;28;20395;-43
2020/12/16 10:28:56;;;;;;;50.70;29.40;;;10.50;99.90;;;;;;5036507;28;20032;-43
2020/12/16 10:31:22;;;;;;;43.28;27.58;;;10.70;99.90;;;;;;5035235;28;20025;-46
2020/12/16 10:33:47;;;;;;;42.10;26.80;;;10.80;99.90;;;;;;5035194;28;20025;-47
2020/12/16 10:36:13;;;;;;;40.90;25.95;;;10.90;99.90;;;;;;5035803;28;20021;-44
2020/12/16 10:38:38;;;;;;;39.75;25.88;;;11.00;99.90;;;;;;5035967;28;20028;-47
2020/12/16 10:41:03;;;;;;;36.97;25.48;;;11.20;99.90;;;;;;5036455;28;20025;-44
2020/12/16 10:43:29;;;;;;;38.92;25.33;;;11.30;99.90;;;;;;5034388;28;20028;-46
2020/12/16 10:45:55;;;;;;;38.05;24.35;;;11.70;99.90;;;;;;5036903;28;20024;-44
2020/12/16 10:48:21;;;;;;;32.53;23.25;;;12.80;99.90;;;;;;5046210;28;20091;-46
2020/12/16 10:50:47;;;;;;;28.77;20.27;;;13.70;99.90;;;;;;5046956;28;20479;-46
2020/12/16 10:53:12;;;;;;;27.63;21.45;;;14.70;99.90;;;;;;5026744;28;20113;-45
2020/12/16 10:55:38;;;;;;;26.08;19.45;;;15.50;99.90;;;;;;5026692;28;20398;-48
2020/12/16 10:58:03;;;;;;;25.83;18.83;;;16.70;99.90;;;;;;5026275;28;20021;-47
2020/12/16 11:00:30;;;;;;;25.33;19.65;;;17.40;99.90;;;;;;5026710;28;20017;-44
2020/12/16 11:02:55;;;;;;;19.58;16.58;;;17.80;99.90;;;;;;5026316;28;20398;-46
2020/12/16 11:05:21;;;;;;;18.00;15.70;;;18.20;99.10;;;;;;5025421;28;20057;-45
2020/12/16 11:07:46;;;;;;;20.35;16.88;;;18.60;97.40;;;;;;5024532;28;20084;-45
2020/12/16 11:10:12;;;;;;;18.85;15.52;;;19.10;94.00;;;;;;5032840;28;20086;-45
2020/12/16 11:12:37;;;;;;;19.60;15.98;;;18.60;92.20;;;;;;5026573;28;20191;-46
2020/12/16 11:15:03;;;;;;;21.02;16.23;;;18.10;93.80;;;;;;5025967;28;20387;-45
2020/12/16 11:17:28;;;;;;;21.35;16.63;;;17.80;93.70;;;;;;5029019;28;20487;-44
2020/12/16 11:19:54;;;;;;;21.10;17.17;;;16.70;97.40;;;;;;5040811;28;20033;-44
2020/12/16 11:22:20;;;;;;;25.08;19.10;;;16.00;99.90;;;;;;5038009;28;20068;-45
2020/12/16 11:24:46;;;;;;;25.30;19.38;;;15.20;99.90;;;;;;5042155;28;20056;-45
2020/12/16 11:27:12;;;;;;;25.23;17.70;;;14.60;99.90;;;;;;5047763;28;20041;-44
2020/12/16 11:29:37;;;;;;;24.92;18.08;;;14.20;99.90;;;;;;5048947;28;20124;-44
2020/12/16 11:32:04;;;;;;;25.52;19.25;;;13.80;99.90;;;;;;5041503;28;20025;-45
2020/12/16 11:34:32;;;;;;;27.58;18.55;;;13.50;99.90;;;;;;5039537;28;20029;-44
2020/12/16 11:37:00;;;;;;;25.27;19.75;;;13.20;99.90;;;;;;5036913;28;20009;-45
2020/12/16 11:39:26;;;;;;;26.83;19.83;;;13.00;99.90;;;;;;5035473;28;20029;-45
2020/12/16 11:41:53;;;;;;;29.70;19.95;;;12.90;99.90;;;;;;5039520;28;20021;-49
2020/12/16 11:44:20;;;;;;;31.20;21.40;;;12.60;99.90;;;;;;5037595;28;20024;-50
2020/12/16 11:46:47;;;;;;;29.77;19.95;;;12.60;99.90;;;;;;5036986;28;20490;-49
2020/12/16 11:49:13;;;;;;;31.20;20.63;;;12.40;99.90;;;;;;5038391;28;20030;-49
2020/12/16 11:51:39;;;;;;;31.92;19.98;;;12.30;99.90;;;;;;5037667;28;20028;-52
2020/12/16 11:54:05;;;;;;;28.60;18.33;;;12.20;99.90;;;;;;5037993;28;20497;-50
2020/12/16 11:56:35;;;;;;;30.13;19.10;;;12.10;99.90;;;;;;5036949;28;20063;-48
2020/12/16 11:59:01;;;;;;;29.23;18.00;;;12.00;99.90;;;;;;5039664;28;20079;-48
2020/12/16 12:01:27;;;;;;;27.70;18.48;;;11.90;99.90;;;;;;5035678;28;20032;-51
2020/12/16 12:03:52;;;;;;;31.27;20.55;;;11.90;99.90;;;;;;5038244;28;20028;-48
2020/12/16 12:06:18;;;;;;;30.08;19.75;;;11.90;99.90;;;;;;5035987;28;20379;-48
2020/12/16 12:08:44;;;;;;;27.65;17.40;;;11.90;99.90;;;;;;5040341;28;20039;-48
2020/12/16 12:11:14;;;;;;;28.77;18.55;;;11.80;99.90;;;;;;5038198;28;20030;-49
2020/12/16 12:13:41;;;;;;;29.92;18.38;;;11.80;99.90;;;;;;5039295;28;20021;-48
2020/12/16 12:16:08;;;;;;;32.50;19.45;;;11.80;99.90;;;;;;5039657;28;20076;-48
2020/12/16 12:18:33;;;;;;;29.85;19.00;;;11.80;99.90;;;;;;5037318;28;20021;-48
2020/12/16 12:20:59;;;;;;;28.73;18.23;;;11.70;99.90;;;;;;5038946;28;20047;-49
2020/12/16 12:23:24;;;;;;;31.60;20.35;;;11.80;99.90;;;;;;5035810;28;20656;-50
2020/12/16 12:25:51;;;;;;;29.95;18.70;;;11.60;99.90;;;;;;5038515;28;20348;-48
2020/12/16 12:28:17;;;;;;;30.15;18.08;;;11.50;99.90;;;;;;5037901;28;20100;-49
2020/12/16 12:30:42;;;;;;;32.90;18.55;;;11.50;99.90;;;;;;5037955;28;20112;-49
2020/12/16 12:33:08;;;;;;;30.73;18.90;;;11.50;99.90;;;;;;5039439;28;20518;-49
2020/12/16 12:35:34;;;;;;;27.35;17.17;;;11.50;99.90;;;;;;5035509;28;20493;-50
2020/12/16 12:37:59;;;;;;;28.83;18.08;;;11.40;99.90;;;;;;5036660;28;20306;-48
2020/12/16 12:40:25;;;;;;;27.27;15.82;;;11.40;99.90;;;;;;5038560;28;20104;-49